sensor_id;sensor_type;location;lat;lon;timestamp;pressure;altitude;pressure_sealevel;temperature;humidity
56052;BME280;41919;42.648;23.384;2023-04-01T00:01:06;93714.41;;;11.75;55.79
56052;BME280;41919;42.648;23.384;2023-04-01T00:03:32;93655.66;;;11.19;56.12
56052;BME280;41919;42.648;23.384;2023-04-01T00:05:59;93645.44;;;11.06;56.48
56052;BME280;41919;42.648;23.384;2023-04-01T00:08:25;93686.03;;;10.96;57.42
56052;BME280;41919;42.648;23.384;2023-04-01T00:10:52;93715.69;;;10.90;58.71
56052;BME280;41919;42.648;23.384;2023-04-01T00:13:18;93730.22;;;10.74;59.88
56052;BME280;41919;42.648;23.384;2023-04-01T00:15:44;93717.53;;;10.36;61.26
56052;BME280;41919;42.648;23.384;2023-04-01T00:18:10;93697.66;;;10.16;61.99
56052;BME280;41919;42.648;23.384;2023-04-01T00:20:35;93717.66;;;10.23;62.56
56052;BME280;41919;42.648;23.384;2023-04-01T00:23:01;93722.22;;;10.27;62.24
56052;BME280;41919;42.648;23.384;2023-04-01T00:25:27;93683.25;;;9.65;63.41
56052;BME280;41919;42.648;23.384;2023-04-01T00:27:53;93730.44;;;9.64;65.17
56052;BME280;41919;42.648;23.384;2023-04-01T00:30:18;93639.78;;;9.22;64.66
56052;BME280;41919;42.648;23.384;2023-04-01T00:32:44;93726.63;;;9.96;64.10
56052;BME280;41919;42.648;23.384;2023-04-01T00:35:10;93714.84;;;9.75;64.57
56052;BME280;41919;42.648;23.384;2023-04-01T00:37:37;93715.13;;;9.67;65.30
56052;BME280;41919;42.648;23.384;2023-04-01T00:40:04;93727.00;;;9.81;64.92
56052;BME280;41919;42.648;23.384;2023-04-01T00:42:30;93715.13;;;9.86;65.48
56052;BME280;41919;42.648;23.384;2023-04-01T00:44:56;93641.69;;;9.52;64.85
56052;BME280;41919;42.648;23.384;2023-04-01T00:47:23;93632.09;;;9.64;64.27
56052;BME280;41919;42.648;23.384;2023-04-01T00:49:51;93693.06;;;10.00;64.76
56052;BME280;41919;42.648;23.384;2023-04-01T00:52:21;93672.22;;;10.12;64.26
56052;BME280;41919;42.648;23.384;2023-04-01T00:54:50;93692.78;;;10.20;63.23
56052;BME280;41919;42.648;23.384;2023-04-01T00:57:34;93684.91;;;10.08;62.90
56052;BME280;41919;42.648;23.384;2023-04-01T01:00:05;93612.34;;;9.68;61.22
56052;BME280;41919;42.648;23.384;2023-04-01T01:02:33;93642.28;;;9.84;61.66
56052;BME280;41919;42.648;23.384;2023-04-01T01:04:59;93609.06;;;9.61;62.26
56052;BME280;41919;42.648;23.384;2023-04-01T01:07:31;93686.22;;;9.99;62.49
56052;BME280;41919;42.648;23.384;2023-04-01T01:12:50;93670.91;;;10.02;62.19
56052;BME280;41919;42.648;23.384;2023-04-01T01:15:26;93680.81;;;10.12;61.40
56052;BME280;41919;42.648;23.384;2023-04-01T01:18:02;93658.59;;;10.10;61.75
56052;BME280;41919;42.648;23.384;2023-04-01T01:36:32;93566.00;;;10.24;55.75
56052;BME280;41919;42.648;23.384;2023-04-01T01:39:05;93592.84;;;10.67;54.66
56052;BME280;41919;42.648;23.384;2023-04-01T01:41:34;93606.13;;;10.89;55.62
56052;BME280;41919;42.648;23.384;2023-04-01T01:44:05;93592.84;;;10.78;55.84
56052;BME280;41919;42.648;23.384;2023-04-01T01:46:32;93619.78;;;10.79;55.95
56052;BME280;41919;42.648;23.384;2023-04-01T01:48:59;93609.66;;;10.83;55.54
56052;BME280;41919;42.648;23.384;2023-04-01T01:51:26;93625.31;;;10.94;55.78
56052;BME280;41919;42.648;23.384;2023-04-01T01:53:52;93524.69;;;10.33;55.13
56052;BME280;41919;42.648;23.384;2023-04-01T01:56:19;93594.31;;;10.86;54.68
56052;BME280;41919;42.648;23.384;2023-04-01T01:58:49;93604.28;;;11.13;54.00
56052;BME280;41919;42.648;23.384;2023-04-01T02:01:20;93561.34;;;10.97;53.54
56052;BME280;41919;42.648;23.384;2023-04-01T02:03:48;93604.22;;;11.36;52.97
56052;BME280;41919;42.648;23.384;2023-04-01T02:06:17;93590.41;;;11.24;53.56
56052;BME280;41919;42.648;23.384;2023-04-01T02:08:47;93608.03;;;11.17;54.44
56052;BME280;41919;42.648;23.384;2023-04-01T02:11:18;93608.03;;;11.17;54.42
56052;BME280;41919;42.648;23.384;2023-04-01T02:13:56;93523.63;;;10.81;54.36
56052;BME280;41919;42.648;23.384;2023-04-01T02:16:39;93589.66;;;11.41;53.87
56052;BME280;41919;42.648;23.384;2023-04-01T02:19:07;93593.94;;;11.58;52.64
56052;BME280;41919;42.648;23.384;2023-04-01T02:21:34;93576.59;;;11.41;53.01
56052;BME280;41919;42.648;23.384;2023-04-01T02:24:04;93535.03;;;11.15;53.00
56052;BME280;41919;42.648;23.384;2023-04-01T02:26:30;93503.25;;;11.07;53.05
56052;BME280;41919;42.648;23.384;2023-04-01T02:28:57;93506.94;;;11.23;52.46
56052;BME280;41919;42.648;23.384;2023-04-01T02:31:23;93533.81;;;11.47;51.93
56052;BME280;41919;42.648;23.384;2023-04-01T02:33:50;93526.38;;;11.55;50.83
56052;BME280;41919;42.648;23.384;2023-04-01T02:36:16;93509.63;;;11.40;51.17
56052;BME280;41919;42.648;23.384;2023-04-01T02:38:44;93516.28;;;11.47;51.32
56052;BME280;41919;42.648;23.384;2023-04-01T02:41:10;93512.59;;;11.31;51.83
56052;BME280;41919;42.648;23.384;2023-04-01T02:43:36;93560.34;;;11.67;52.13
56052;BME280;41919;42.648;23.384;2023-04-01T02:46:02;93517.22;;;11.41;52.14
56052;BME280;41919;42.648;23.384;2023-04-01T02:48:28;93524.31;;;11.57;51.86
56052;BME280;41919;42.648;23.384;2023-04-01T02:50:53;93541.16;;;11.78;50.02
56052;BME280;41919;42.648;23.384;2023-04-01T02:53:19;93594.88;;;12.27;50.17
56052;BME280;41919;42.648;23.384;2023-04-01T02:55:45;93574.88;;;12.21;50.52
56052;BME280;41919;42.648;23.384;2023-04-01T02:58:11;93546.13;;;11.92;50.87
56052;BME280;41919;42.648;23.384;2023-04-01T03:00:37;93605.91;;;12.29;50.79
56052;BME280;41919;42.648;23.384;2023-04-01T03:03:03;93602.06;;;12.31;50.79
56052;BME280;41919;42.648;23.384;2023-04-01T03:05:28;93614.28;;;12.26;50.95
56052;BME280;41919;42.648;23.384;2023-04-01T03:07:54;93625.03;;;12.12;51.63
56052;BME280;41919;42.648;23.384;2023-04-01T03:10:20;93618.97;;;12.24;51.95
56052;BME280;41919;42.648;23.384;2023-04-01T03:12:45;93570.50;;;11.81;52.30
56052;BME280;41919;42.648;23.384;2023-04-01T03:15:12;93571.41;;;11.57;53.40
56052;BME280;41919;42.648;23.384;2023-04-01T03:17:40;93626.84;;;11.95;53.89
56052;BME280;41919;42.648;23.384;2023-04-01T03:20:07;93631.13;;;12.01;53.99
56052;BME280;41919;42.648;23.384;2023-04-01T03:22:34;93612.50;;;11.86;54.58
56052;BME280;41919;42.648;23.384;2023-04-01T03:25:00;93625.72;;;11.91;55.59
56052;BME280;41919;42.648;23.384;2023-04-01T03:27:25;93557.38;;;11.35;55.85
56052;BME280;41919;42.648;23.384;2023-04-01T03:29:51;93571.56;;;11.51;55.57
56052;BME280;41919;42.648;23.384;2023-04-01T03:32:16;93612.06;;;11.77;55.53
56052;BME280;41919;42.648;23.384;2023-04-01T03:34:42;93615.44;;;11.61;55.58
56052;BME280;41919;42.648;23.384;2023-04-01T03:37:07;93613.28;;;11.57;55.84
56052;BME280;41919;42.648;23.384;2023-04-01T03:39:32;93541.72;;;11.23;56.00
56052;BME280;41919;42.648;23.384;2023-04-01T03:41:58;93554.56;;;11.25;56.23
56052;BME280;41919;42.648;23.384;2023-04-01T03:44:24;93611.66;;;11.68;56.97
56052;BME280;41919;42.648;23.384;2023-04-01T03:46:50;93580.28;;;11.28;57.90
56052;BME280;41919;42.648;23.384;2023-04-01T03:49:15;93591.53;;;11.28;57.91
56052;BME280;41919;42.648;23.384;2023-04-01T03:51:42;93594.56;;;11.37;58.12
56052;BME280;41919;42.648;23.384;2023-04-01T03:54:08;93575.47;;;11.36;58.04
56052;BME280;41919;42.648;23.384;2023-04-01T03:56:34;93598.50;;;11.51;58.37
56052;BME280;41919;42.648;23.384;2023-04-01T03:59:04;93528.28;;;10.91;59.38
56052;BME280;41919;42.648;23.384;2023-04-01T04:01:30;93513.63;;;10.90;59.83
56052;BME280;41919;42.648;23.384;2023-04-01T04:03:56;93538.25;;;11.06;59.94
56052;BME280;41919;42.648;23.384;2023-04-01T04:06:23;93481.97;;;10.74;59.52
56052;BME280;41919;42.648;23.384;2023-04-01T04:08:49;93536.19;;;11.08;58.54
56052;BME280;41919;42.648;23.384;2023-04-01T04:11:15;93469.94;;;10.62;58.25
56052;BME280;41919;42.648;23.384;2023-04-01T04:13:40;93541.06;;;11.16;57.83
56052;BME280;41919;42.648;23.384;2023-04-01T04:16:07;93447.44;;;10.72;57.68
56052;BME280;41919;42.648;23.384;2023-04-01T04:18:33;93518.66;;;11.20;57.21
56052;BME280;41919;42.648;23.384;2023-04-01T04:20:59;93486.13;;;10.87;58.62
56052;BME280;41919;42.648;23.384;2023-04-01T04:23:24;93434.41;;;10.61;58.18
56052;BME280;41919;42.648;23.384;2023-04-01T04:26:10;93490.22;;;10.95;58.95
56052;BME280;41919;42.648;23.384;2023-04-01T04:28:36;93425.09;;;10.29;59.87
56052;BME280;41919;42.648;23.384;2023-04-01T04:31:02;93492.78;;;10.66;59.19
56052;BME280;41919;42.648;23.384;2023-04-01T04:33:29;93476.41;;;10.59;59.08
56052;BME280;41919;42.648;23.384;2023-04-01T04:35:56;93438.84;;;10.36;59.13
56052;BME280;41919;42.648;23.384;2023-04-01T04:38:22;93476.63;;;10.69;57.99
56052;BME280;41919;42.648;23.384;2023-04-01T04:40:47;93472.28;;;10.75;57.88
56052;BME280;41919;42.648;23.384;2023-04-01T04:43:15;93447.28;;;10.79;58.21
56052;BME280;41919;42.648;23.384;2023-04-01T04:45:41;93464.84;;;10.95;57.41
56052;BME280;41919;42.648;23.384;2023-04-01T04:48:11;93449.34;;;11.06;56.39
56052;BME280;41919;42.648;23.384;2023-04-01T04:50:44;93441.41;;;11.01;55.47
56052;BME280;41919;42.648;23.384;2023-04-01T04:53:12;93453.28;;;11.20;55.44
56052;BME280;41919;42.648;23.384;2023-04-01T04:55:43;93437.03;;;11.18;55.39
56052;BME280;41919;42.648;23.384;2023-04-01T04:58:08;93351.56;;;10.61;54.26
56052;BME280;41919;42.648;23.384;2023-04-01T05:00:34;93362.44;;;10.70;54.33
56052;BME280;41919;42.648;23.384;2023-04-01T05:02:59;93431.31;;;11.21;54.21
56052;BME280;41919;42.648;23.384;2023-04-01T05:05:25;93433.06;;;11.15;54.27
56052;BME280;41919;42.648;23.384;2023-04-01T05:07:50;93354.69;;;10.75;54.24
56052;BME280;41919;42.648;23.384;2023-04-01T05:10:16;93360.19;;;10.90;54.14
56052;BME280;41919;42.648;23.384;2023-04-01T05:12:41;93368.22;;;11.01;54.35
56052;BME280;41919;42.648;23.384;2023-04-01T05:15:07;93352.50;;;11.12;54.39
56052;BME280;41919;42.648;23.384;2023-04-01T05:17:33;93411.56;;;11.59;55.09
56052;BME280;41919;42.648;23.384;2023-04-01T05:19:58;93413.13;;;11.60;55.38
56052;BME280;41919;42.648;23.384;2023-04-01T05:22:24;93441.22;;;11.65;55.80
56052;BME280;41919;42.648;23.384;2023-04-01T05:24:49;93415.19;;;11.58;55.76
56052;BME280;41919;42.648;23.384;2023-04-01T05:27:15;93408.16;;;11.75;54.81
56052;BME280;41919;42.648;23.384;2023-04-01T05:29:40;93383.31;;;11.78;54.44
56052;BME280;41919;42.648;23.384;2023-04-01T05:32:06;93408.56;;;12.01;54.17
56052;BME280;41919;42.648;23.384;2023-04-01T05:34:31;93280.06;;;11.47;53.79
56052;BME280;41919;42.648;23.384;2023-04-01T05:36:57;93411.38;;;12.55;53.27
56052;BME280;41919;42.648;23.384;2023-04-01T05:39:22;93369.19;;;12.79;52.21
56052;BME280;41919;42.648;23.384;2023-04-01T05:41:48;93364.28;;;13.42;49.74
56052;BME280;41919;42.648;23.384;2023-04-01T05:44:14;93390.47;;;14.02;48.92
56052;BME280;41919;42.648;23.384;2023-04-01T05:46:40;93402.44;;;14.30;47.79
56052;BME280;41919;42.648;23.384;2023-04-01T05:49:06;93373.53;;;14.25;46.53
56052;BME280;41919;42.648;23.384;2023-04-01T05:51:31;93383.09;;;14.46;46.85
56052;BME280;41919;42.648;23.384;2023-04-01T05:53:56;93388.97;;;14.64;46.71
56052;BME280;41919;42.648;23.384;2023-04-01T05:56:22;93378.88;;;15.29;44.55
56052;BME280;41919;42.648;23.384;2023-04-01T05:58:51;93374.63;;;16.31;42.12
56052;BME280;41919;42.648;23.384;2023-04-01T06:01:17;93316.06;;;16.99;39.77
56052;BME280;41919;42.648;23.384;2023-04-01T06:03:44;93366.56;;;18.30;37.14
56052;BME280;41919;42.648;23.384;2023-04-01T06:06:15;93325.75;;;18.84;35.53
56052;BME280;41919;42.648;23.384;2023-04-01T06:08:41;93264.16;;;18.97;33.89
56052;BME280;41919;42.648;23.384;2023-04-01T06:14:07;93386.88;;;19.64;35.76
56052;BME280;41919;42.648;23.384;2023-04-01T06:16:58;93374.59;;;18.92;35.02
56052;BME280;41919;42.648;23.384;2023-04-01T06:19:30;93384.03;;;18.55;35.74
56052;BME280;41919;42.648;23.384;2023-04-01T06:24:51;93368.06;;;17.77;37.27
56052;BME280;41919;42.648;23.384;2023-04-01T06:30:02;93385.06;;;17.32;38.38
56052;BME280;41919;42.648;23.384;2023-04-01T06:32:57;93383.13;;;16.93;39.15
56052;BME280;41919;42.648;23.384;2023-04-01T06:35:53;93362.88;;;16.83;39.31
56052;BME280;41919;42.648;23.384;2023-04-01T06:47:17;93249.63;;;14.89;44.05
56052;BME280;41919;42.648;23.384;2023-04-01T06:55:41;93294.28;;;14.54;46.25
56052;BME280;41919;42.648;23.384;2023-04-01T06:58:20;93324.81;;;14.60;47.34
56052;BME280;41919;42.648;23.384;2023-04-01T07:00:49;93281.06;;;13.80;49.26
56052;BME280;41919;42.648;23.384;2023-04-01T07:03:48;93331.78;;;13.86;50.98
56052;BME280;41919;42.648;23.384;2023-04-01T07:06:38;93303.88;;;13.75;51.51
56052;BME280;41919;42.648;23.384;2023-04-01T07:09:09;93260.66;;;13.50;51.53
56052;BME280;41919;42.648;23.384;2023-04-01T07:11:38;93178.91;;;12.83;52.47
56052;BME280;41919;42.648;23.384;2023-04-01T07:14:27;93337.13;;;13.96;51.90
56052;BME280;41919;42.648;23.384;2023-04-01T07:20:19;93309.28;;;14.05;51.86
56052;BME280;41919;42.648;23.384;2023-04-01T07:22:48;93241.38;;;13.71;52.41
56052;BME280;41919;42.648;23.384;2023-04-01T07:25:21;93317.19;;;14.05;52.84
56052;BME280;41919;42.648;23.384;2023-04-01T07:27:47;93283.59;;;13.65;53.70
56052;BME280;41919;42.648;23.384;2023-04-01T07:30:19;93292.47;;;14.01;52.61
56052;BME280;41919;42.648;23.384;2023-04-01T07:32:53;93318.88;;;14.32;52.53
56052;BME280;41919;42.648;23.384;2023-04-01T07:35:28;93164.19;;;13.20;52.68
56052;BME280;41919;42.648;23.384;2023-04-01T07:38:27;93257.50;;;13.96;51.79
56052;BME280;41919;42.648;23.384;2023-04-01T07:44:19;93323.13;;;14.43;52.20
56052;BME280;41919;42.648;23.384;2023-04-01T07:52:22;93256.13;;;14.51;50.64
56052;BME280;41919;42.648;23.384;2023-04-01T07:55:01;93258.31;;;14.75;50.23
56052;BME280;41919;42.648;23.384;2023-04-01T08:14:04;93292.28;;;15.17;49.91
56052;BME280;41919;42.648;23.384;2023-04-01T08:16:48;93242.53;;;14.80;49.76
56052;BME280;41919;42.648;23.384;2023-04-01T08:22:03;93298.59;;;15.01;49.59
56052;BME280;41919;42.648;23.384;2023-04-01T08:24:42;93288.59;;;15.18;49.85
56052;BME280;41919;42.648;23.384;2023-04-01T08:27:37;93269.66;;;15.26;49.23
56052;BME280;41919;42.648;23.384;2023-04-01T08:30:24;93255.69;;;15.41;49.80
56052;BME280;41919;42.648;23.384;2023-04-01T08:33:28;93258.06;;;15.43;49.51
56052;BME280;41919;42.648;23.384;2023-04-01T08:35:56;93248.06;;;15.55;49.38
56052;BME280;41919;42.648;23.384;2023-04-01T08:38:34;93205.97;;;15.29;48.53
56052;BME280;41919;42.648;23.384;2023-04-01T08:47:15;93199.31;;;15.73;47.42
56052;BME280;41919;42.648;23.384;2023-04-01T08:58:21;93198.13;;;16.05;47.22
56052;BME280;41919;42.648;23.384;2023-04-01T09:00:50;93199.88;;;16.30;48.25
56052;BME280;41919;42.648;23.384;2023-04-01T09:28:20;93191.09;;;17.19;41.09
56052;BME280;41919;42.648;23.384;2023-04-01T09:39:37;93168.66;;;16.87;40.55
56052;BME280;41919;42.648;23.384;2023-04-01T09:45:09;93173.66;;;16.89;40.10
56052;BME280;41919;42.648;23.384;2023-04-01T09:50:33;93139.09;;;16.51;40.42
56052;BME280;41919;42.648;23.384;2023-04-01T10:54:56;93083.50;;;16.07;46.31
56052;BME280;41919;42.648;23.384;2023-04-01T11:17:18;93062.16;;;16.43;44.81
56052;BME280;41919;42.648;23.384;2023-04-01T11:22:49;93051.50;;;16.59;43.89
56052;BME280;41919;42.648;23.384;2023-04-01T11:25:23;93059.97;;;16.51;43.80
56052;BME280;41919;42.648;23.384;2023-04-01T11:36:27;93075.34;;;16.43;38.22
56052;BME280;41919;42.648;23.384;2023-04-01T11:44:22;93148.00;;;16.60;38.98
56052;BME280;41919;42.648;23.384;2023-04-01T11:46:56;93186.03;;;16.49;40.76
56052;BME280;41919;42.648;23.384;2023-04-01T11:49:51;93212.75;;;15.77;48.16
56052;BME280;41919;42.648;23.384;2023-04-01T11:55:23;93259.78;;;14.40;60.50
56052;BME280;41919;42.648;23.384;2023-04-01T12:09:49;93291.41;;;12.63;79.34
56052;BME280;41919;42.648;23.384;2023-04-01T12:15:10;93308.59;;;12.75;85.22
56052;BME280;41919;42.648;23.384;2023-04-01T12:23:05;93249.81;;;12.44;88.01
56052;BME280;41919;42.648;23.384;2023-04-01T12:28:25;93221.28;;;12.21;87.61
56052;BME280;41919;42.648;23.384;2023-04-01T12:40:29;93302.06;;;12.78;82.96
56052;BME280;41919;42.648;23.384;2023-04-01T12:46:47;93266.88;;;12.20;85.42
56052;BME280;41919;42.648;23.384;2023-04-01T13:00:27;93311.13;;;11.99;93.65
56052;BME280;41919;42.648;23.384;2023-04-01T13:03:16;93295.44;;;11.82;93.90
56052;BME280;41919;42.648;23.384;2023-04-01T13:11:21;93281.81;;;11.80;98.12
56052;BME280;41919;42.648;23.384;2023-04-01T13:16:31;93256.63;;;11.57;82.55
56052;BME280;41919;42.648;23.384;2023-04-01T13:27:12;93205.56;;;12.43;73.15
56052;BME280;41919;42.648;23.384;2023-04-01T13:32:37;93193.31;;;12.86;70.08
56052;BME280;41919;42.648;23.384;2023-04-01T13:40:33;93157.69;;;13.85;60.35
56052;BME280;41919;42.648;23.384;2023-04-01T14:03:39;93174.03;;;15.62;60.40
56052;BME280;41919;42.648;23.384;2023-04-01T14:06:37;93152.31;;;15.05;68.60
56052;BME280;41919;42.648;23.384;2023-04-01T14:09:19;93094.22;;;14.19;69.88
56052;BME280;41919;42.648;23.384;2023-04-01T14:25:43;93104.75;;;13.36;76.12
56052;BME280;41919;42.648;23.384;2023-04-01T14:31:20;93122.47;;;13.18;78.31
56052;BME280;41919;42.648;23.384;2023-04-01T14:34:09;93123.50;;;13.12;78.20
56052;BME280;41919;42.648;23.384;2023-04-01T14:36:49;93125.00;;;13.03;78.39
56052;BME280;41919;42.648;23.384;2023-04-01T14:42:31;93122.19;;;13.14;79.07
56052;BME280;41919;42.648;23.384;2023-04-01T14:50:41;93111.59;;;13.47;76.82
56052;BME280;41919;42.648;23.384;2023-04-01T15:05:54;93080.38;;;12.98;76.94
56052;BME280;41919;42.648;23.384;2023-04-01T15:08:26;93113.03;;;13.22;78.98
56052;BME280;41919;42.648;23.384;2023-04-01T15:11:24;93128.84;;;13.32;76.88
56052;BME280;41919;42.648;23.384;2023-04-01T15:16:54;93125.22;;;13.44;77.90
56052;BME280;41919;42.648;23.384;2023-04-01T15:22:18;93133.00;;;13.28;79.60
56052;BME280;41919;42.648;23.384;2023-04-01T15:28:02;93112.75;;;13.19;78.27
56052;BME280;41919;42.648;23.384;2023-04-01T15:30:33;93128.72;;;13.12;79.09
56052;BME280;41919;42.648;23.384;2023-04-01T15:38:41;93134.63;;;13.34;77.96
56052;BME280;41919;42.648;23.384;2023-04-01T15:43:53;93125.34;;;13.17;78.91
56052;BME280;41919;42.648;23.384;2023-04-01T15:55:00;93266.94;;;12.79;80.18
56052;BME280;41919;42.648;23.384;2023-04-01T15:58:00;93289.81;;;12.12;80.58
56052;BME280;41919;42.648;23.384;2023-04-01T16:00:49;93289.09;;;11.78;68.33
56052;BME280;41919;42.648;23.384;2023-04-01T16:06:11;93354.25;;;10.78;75.75
56052;BME280;41919;42.648;23.384;2023-04-01T16:22:32;93337.38;;;8.98;100.00
56052;BME280;41919;42.648;23.384;2023-04-01T16:28:29;93418.16;;;9.40;100.00
56052;BME280;41919;42.648;23.384;2023-04-01T16:31:16;93413.16;;;9.39;100.00
56052;BME280;41919;42.648;23.384;2023-04-01T16:33:56;93394.72;;;9.10;100.00
56052;BME280;41919;42.648;23.384;2023-04-01T16:36:26;93361.94;;;8.91;100.00
56052;BME280;41919;42.648;23.384;2023-04-01T16:39:07;93431.44;;;9.09;100.00
56052;BME280;41919;42.648;23.384;2023-04-01T16:41:38;93432.13;;;9.16;100.00
56052;BME280;41919;42.648;23.384;2023-04-01T16:44:24;93435.09;;;9.19;100.00
56052;BME280;41919;42.648;23.384;2023-04-01T16:46:57;93434.31;;;9.19;100.00
56052;BME280;41919;42.648;23.384;2023-04-01T16:49:54;93355.16;;;8.59;100.00
56052;BME280;41919;42.648;23.384;2023-04-01T16:55:16;93425.00;;;9.11;99.97
56052;BME280;41919;42.648;23.384;2023-04-01T16:57:56;93309.03;;;8.30;98.54
56052;BME280;41919;42.648;23.384;2023-04-01T17:24:59;93437.34;;;8.55;95.42
56052;BME280;41919;42.648;23.384;2023-04-01T17:30:36;93441.81;;;8.48;94.06
56052;BME280;41919;42.648;23.384;2023-04-01T17:33:13;93436.16;;;8.51;93.54
56052;BME280;41919;42.648;23.384;2023-04-01T17:46:02;93440.19;;;8.29;91.93
56052;BME280;41919;42.648;23.384;2023-04-01T18:03:15;93517.16;;;8.98;85.96
56052;BME280;41919;42.648;23.384;2023-04-01T18:06:07;93499.44;;;8.89;85.52
56052;BME280;41919;42.648;23.384;2023-04-01T18:14:17;93533.53;;;8.87;87.52
56052;BME280;41919;42.648;23.384;2023-04-01T18:25:33;93473.22;;;8.10;91.23
56052;BME280;41919;42.648;23.384;2023-04-01T18:38:53;93459.84;;;8.06;91.02
56052;BME280;41919;42.648;23.384;2023-04-01T18:44:34;93556.09;;;8.56;88.69
56052;BME280;41919;42.648;23.384;2023-04-01T18:47:25;93573.47;;;8.62;88.64
56052;BME280;41919;42.648;23.384;2023-04-01T18:50:30;93566.78;;;8.48;89.75
56052;BME280;41919;42.648;23.384;2023-04-01T18:56:07;93506.50;;;8.01;89.82
56052;BME280;41919;42.648;23.384;2023-04-01T18:58:59;93488.28;;;8.01;88.92
56052;BME280;41919;42.648;23.384;2023-04-01T19:02:13;93587.13;;;8.58;88.02
56052;BME280;41919;42.648;23.384;2023-04-01T19:04:47;93578.66;;;8.37;87.05
56052;BME280;41919;42.648;23.384;2023-04-01T19:26:20;93546.72;;;8.92;80.99
56052;BME280;41919;42.648;23.384;2023-04-01T19:28:58;93549.94;;;9.06;80.82
56052;BME280;41919;42.648;23.384;2023-04-01T19:34:29;93589.97;;;8.93;78.78
56052;BME280;41919;42.648;23.384;2023-04-01T19:42:33;93636.41;;;9.21;75.85
56052;BME280;41919;42.648;23.384;2023-04-01T19:45:41;93606.03;;;9.09;75.29
56052;BME280;41919;42.648;23.384;2023-04-01T19:56:17;93636.19;;;9.23;74.72
56052;BME280;41919;42.648;23.384;2023-04-01T19:58:54;93574.63;;;8.85;75.11
56052;BME280;41919;42.648;23.384;2023-04-01T20:01:47;93647.41;;;9.23;74.87
56052;BME280;41919;42.648;23.384;2023-04-01T20:04:42;93576.63;;;8.64;75.28
56052;BME280;41919;42.648;23.384;2023-04-01T20:07:30;93653.28;;;9.19;74.05
56052;BME280;41919;42.648;23.384;2023-04-01T20:12:46;93629.44;;;9.15;73.48
56052;BME280;41919;42.648;23.384;2023-04-01T20:17:47;93615.31;;;9.05;72.39
56052;BME280;41919;42.648;23.384;2023-04-01T20:20:24;93535.84;;;8.33;75.37
56052;BME280;41919;42.648;23.384;2023-04-01T20:26:02;93639.22;;;9.20;71.60
56052;BME280;41919;42.648;23.384;2023-04-01T20:29:02;93628.09;;;9.13;69.72
56052;BME280;41919;42.648;23.384;2023-04-01T20:31:34;93616.72;;;9.07;67.81
56052;BME280;41919;42.648;23.384;2023-04-01T20:39:52;93645.16;;;9.09;67.56
56052;BME280;41919;42.648;23.384;2023-04-01T20:51:05;93649.19;;;9.05;69.57
56052;BME280;41919;42.648;23.384;2023-04-01T20:59:09;93648.13;;;9.12;73.15
56052;BME280;41919;42.648;23.384;2023-04-01T21:01:42;93651.31;;;9.14;69.83
56052;BME280;41919;42.648;23.384;2023-04-01T21:07:34;93678.03;;;9.10;70.82
56052;BME280;41919;42.648;23.384;2023-04-01T21:10:12;93582.84;;;8.45;70.98
56052;BME280;41919;42.648;23.384;2023-04-01T21:31:56;93669.06;;;9.06;68.41
56052;BME280;41919;42.648;23.384;2023-04-01T21:51:07;93672.09;;;9.21;66.36
56052;BME280;41919;42.648;23.384;2023-04-01T22:07:18;93593.00;;;8.72;65.86
56052;BME280;41919;42.648;23.384;2023-04-01T22:18:09;93680.75;;;8.96;66.97
56052;BME280;41919;42.648;23.384;2023-04-01T22:20:50;93654.53;;;8.91;67.37
56052;BME280;41919;42.648;23.384;2023-04-01T22:23:36;93667.66;;;9.03;67.32
56052;BME280;41919;42.648;23.384;2023-04-01T22:28:55;93675.41;;;9.10;66.98
56052;BME280;41919;42.648;23.384;2023-04-01T22:31:28;93659.69;;;8.98;66.61
56052;BME280;41919;42.648;23.384;2023-04-01T22:36:49;93676.53;;;8.95;67.16
56052;BME280;41919;42.648;23.384;2023-04-01T22:41:56;93681.34;;;8.98;66.47
56052;BME280;41919;42.648;23.384;2023-04-01T22:44:43;93664.25;;;8.84;66.54
56052;BME280;41919;42.648;23.384;2023-04-01T22:50:10;93666.28;;;9.00;65.62
56052;BME280;41919;42.648;23.384;2023-04-01T22:52:42;93655.00;;;8.88;65.53
56052;BME280;41919;42.648;23.384;2023-04-01T22:55:21;93695.69;;;9.08;65.21
56052;BME280;41919;42.648;23.384;2023-04-01T22:57:59;93706.16;;;9.01;64.23
56052;BME280;41919;42.648;23.384;2023-04-01T23:00:48;93693.63;;;8.91;63.88
56052;BME280;41919;42.648;23.384;2023-04-01T23:03:23;93700.66;;;8.91;62.99
56052;BME280;41919;42.648;23.384;2023-04-01T23:05:55;93703.25;;;8.91;62.81
56052;BME280;41919;42.648;23.384;2023-04-01T23:11:28;93601.34;;;8.30;62.87
56052;BME280;41919;42.648;23.384;2023-04-01T23:17:05;93622.69;;;8.46;63.17
56052;BME280;41919;42.648;23.384;2023-04-01T23:19:41;93692.47;;;8.87;62.37
56052;BME280;41919;42.648;23.384;2023-04-01T23:24:42;93689.06;;;8.87;62.37
56052;BME280;41919;42.648;23.384;2023-04-01T23:27:33;93673.59;;;8.67;62.32
56052;BME280;41919;42.648;23.384;2023-04-01T23:30:02;93671.16;;;8.72;62.22
56052;BME280;41919;42.648;23.384;2023-04-01T23:32:28;93694.50;;;8.85;61.79
56052;BME280;41919;42.648;23.384;2023-04-01T23:34:58;93708.19;;;8.99;61.52
56052;BME280;41919;42.648;23.384;2023-04-01T23:37:26;93694.06;;;8.88;61.74
56052;BME280;41919;42.648;23.384;2023-04-01T23:39:54;93655.47;;;8.78;61.46
56052;BME280;41919;42.648;23.384;2023-04-01T23:42:27;93715.25;;;9.17;60.95
56052;BME280;41919;42.648;23.384;2023-04-01T23:44:56;93647.28;;;8.75;60.66
56052;BME280;41919;42.648;23.384;2023-04-01T23:47:26;93719.91;;;9.15;60.47
56052;BME280;41919;42.648;23.384;2023-04-01T23:49:55;93689.16;;;8.98;60.65
56052;BME280;41919;42.648;23.384;2023-04-01T23:52:43;93687.56;;;8.97;59.90
56052;BME280;41919;42.648;23.384;2023-04-01T23:55:22;93694.38;;;8.98;60.43
56052;BME280;41919;42.648;23.384;2023-04-01T23:58:13;93716.63;;;9.19;59.66
